Estación Meteorológica Peña el Pijo (Robertgarden) [ 02/03/23 03:56:57 CET ]

Fecha Hora Presion(HPa) Temp (°C) Humedad % Rocio (°C) Viento ( m/s) Direccion Lluvia 1Hora(mm) Lluvia 24H(mm) LLuvia Total(mm)
2010-Apr-10 01:01:13 1015.900 4.8 75 0.7         105.67
2010-Apr-10 02:01:10 1015.600 2.9 78 -0.6         105.67
2010-Apr-10 03:05:16 1015.300 1.9 82 -0.9         105.67
2010-Apr-10 04:01:16 1015.100 1.2 83 -1.4         105.67
2010-Apr-10 05:01:19 1014.800 0.5 84 -2.0         105.67
2010-Apr-10 06:01:12 1014.100 -0.1 86 -2.1         105.67
2010-Apr-10 07:01:15 1014.200 -0.5 86 -2.5         105.67
2010-Apr-10 08:01:10 1014.100 -0.7 88 -2.4         105.67
2010-Apr-10 09:01:12 1014.100 2.3 89 0.6         105.67
2010-Apr-10 10:01:12 1014.000 7.4 74 3.1 1.0 N     105.67
2010-Apr-10 11:01:14 1013.600 9.2 67 3.4         105.67
2010-Apr-10 12:01:12 1013.500 11.5 55 2.6         105.67
2010-Apr-10 13:01:12 1013.300 12.9 49 2.4 1.2 E     105.67
2010-Apr-10 14:01:16 1012.800 13.6 49 3.1         105.67
2010-Apr-10 15:01:12 1012.000 13.8 47 2.6 1.6 NE     105.67
2010-Apr-10 16:01:12 1011.500 14.3 46 2.8 2.7 NNW     105.67
2010-Apr-10 17:01:11 1011.400 14.1 47 2.9         105.67
2010-Apr-10 18:01:16 1010.900 13.3 50 3.1 3.3 N     105.67
2010-Apr-10 19:01:14 1010.400 12.9 50 2.7         105.67
2010-Apr-10 20:01:13 1010.300 11.3 56 2.8         105.67
2010-Apr-10 21:01:17 1010.100 9.6 64 3.1         105.67
2010-Apr-10 22:01:16 1010.500 8.4 71 3.5         105.67
2010-Apr-10 23:01:14 1010.600 8.4 73 3.8         105.67

Temperatura Máxima:14°    Temperatura Mínima:
Presión Máxima:1015.900 Hpa    Presión Mínima:1010.100 Hpa


Volver